sensor_id;sensor_type;location;lat;lon;timestamp;P1;durP1;ratioP1;P2;durP2;ratioP2
4921;SDS011;16625;53.624;10.106;2022-12-17T00:00:40;82.97;;;34.80;;
4921;SDS011;16625;53.624;10.106;2022-12-17T00:03:25;71.83;;;33.90;;
4921;SDS011;16625;53.624;10.106;2022-12-17T00:06:09;81.17;;;36.00;;
4921;SDS011;16625;53.624;10.106;2022-12-17T00:08:53;68.63;;;32.37;;
4921;SDS011;16625;53.624;10.106;2022-12-17T00:11:39;68.13;;;33.30;;
4921;SDS011;16625;53.624;10.106;2022-12-17T00:14:23;66.17;;;31.83;;
4921;SDS011;16625;53.624;10.106;2022-12-17T00:17:07;74.53;;;36.00;;
4921;SDS011;16625;53.624;10.106;2022-12-17T00:19:51;60.80;;;29.77;;
4921;SDS011;16625;53.624;10.106;2022-12-17T00:22:31;69.10;;;33.63;;
4921;SDS011;16625;53.624;10.106;2022-12-17T00:25:16;65.90;;;34.03;;
4921;SDS011;16625;53.624;10.106;2022-12-17T00:28:02;81.40;;;34.67;;
4921;SDS011;16625;53.624;10.106;2022-12-17T00:30:49;69.27;;;30.57;;
4921;SDS011;16625;53.624;10.106;2022-12-17T00:33:33;51.87;;;30.20;;
4921;SDS011;16625;53.624;10.106;2022-12-17T00:36:17;67.17;;;32.27;;
4921;SDS011;16625;53.624;10.106;2022-12-17T00:39:01;65.17;;;30.97;;
4921;SDS011;16625;53.624;10.106;2022-12-17T00:41:46;81.00;;;31.17;;
4921;SDS011;16625;53.624;10.106;2022-12-17T00:44:31;65.77;;;32.57;;
4921;SDS011;16625;53.624;10.106;2022-12-17T00:47:15;66.97;;;31.57;;
4921;SDS011;16625;53.624;10.106;2022-12-17T00:49:59;70.03;;;33.70;;
4921;SDS011;16625;53.624;10.106;2022-12-17T00:52:44;61.47;;;31.70;;
4921;SDS011;16625;53.624;10.106;2022-12-17T00:55:28;54.43;;;31.20;;
4921;SDS011;16625;53.624;10.106;2022-12-17T00:58:12;72.20;;;33.23;;
4921;SDS011;16625;53.624;10.106;2022-12-17T01:00:59;59.63;;;31.60;;
4921;SDS011;16625;53.624;10.106;2022-12-17T01:03:40;57.67;;;31.43;;
4921;SDS011;16625;53.624;10.106;2022-12-17T01:06:24;56.67;;;29.00;;
4921;SDS011;16625;53.624;10.106;2022-12-17T01:09:08;61.53;;;30.90;;
4921;SDS011;16625;53.624;10.106;2022-12-17T01:11:52;75.63;;;32.63;;
4921;SDS011;16625;53.624;10.106;2022-12-17T01:14:36;72.83;;;31.67;;
4921;SDS011;16625;53.624;10.106;2022-12-17T01:17:22;67.27;;;32.10;;
4921;SDS011;16625;53.624;10.106;2022-12-17T01:20:07;57.37;;;27.40;;
4921;SDS011;16625;53.624;10.106;2022-12-17T01:22:51;56.20;;;28.73;;
4921;SDS011;16625;53.624;10.106;2022-12-17T01:25:35;72.97;;;29.57;;
4921;SDS011;16625;53.624;10.106;2022-12-17T01:28:20;67.97;;;28.77;;
4921;SDS011;16625;53.624;10.106;2022-12-17T01:31:05;71.03;;;31.37;;
4921;SDS011;16625;53.624;10.106;2022-12-17T01:33:50;63.97;;;31.27;;
4921;SDS011;16625;53.624;10.106;2022-12-17T01:36:35;59.77;;;29.00;;
4921;SDS011;16625;53.624;10.106;2022-12-17T01:39:19;70.33;;;30.73;;
4921;SDS011;16625;53.624;10.106;2022-12-17T01:42:03;68.93;;;30.87;;
4921;SDS011;16625;53.624;10.106;2022-12-17T01:44:49;61.37;;;27.50;;
4921;SDS011;16625;53.624;10.106;2022-12-17T01:47:37;59.50;;;31.37;;
4921;SDS011;16625;53.624;10.106;2022-12-17T01:50:25;82.13;;;33.60;;
4921;SDS011;16625;53.624;10.106;2022-12-17T01:53:11;62.20;;;30.87;;
4921;SDS011;16625;53.624;10.106;2022-12-17T01:55:58;72.60;;;30.77;;
4921;SDS011;16625;53.624;10.106;2022-12-17T01:58:42;63.50;;;31.23;;
4921;SDS011;16625;53.624;10.106;2022-12-17T02:01:27;65.60;;;28.50;;
4921;SDS011;16625;53.624;10.106;2022-12-17T02:04:11;70.50;;;34.07;;
4921;SDS011;16625;53.624;10.106;2022-12-17T02:07:00;64.20;;;29.20;;
4921;SDS011;16625;53.624;10.106;2022-12-17T02:09:57;63.77;;;30.43;;
4921;SDS011;16625;53.624;10.106;2022-12-17T02:12:51;62.63;;;30.77;;
4921;SDS011;16625;53.624;10.106;2022-12-17T02:15:43;58.47;;;29.70;;
4921;SDS011;16625;53.624;10.106;2022-12-17T02:18:34;60.40;;;33.30;;
4921;SDS011;16625;53.624;10.106;2022-12-17T02:21:29;55.97;;;30.07;;
4921;SDS011;16625;53.624;10.106;2022-12-17T02:24:19;63.77;;;29.80;;
4921;SDS011;16625;53.624;10.106;2022-12-17T02:27:12;67.67;;;29.47;;
4921;SDS011;16625;53.624;10.106;2022-12-17T02:29:58;64.93;;;28.93;;
4921;SDS011;16625;53.624;10.106;2022-12-17T02:32:46;56.77;;;26.30;;
4921;SDS011;16625;53.624;10.106;2022-12-17T02:35:32;50.20;;;27.43;;
4921;SDS011;16625;53.624;10.106;2022-12-17T02:38:20;72.87;;;32.97;;
4921;SDS011;16625;53.624;10.106;2022-12-17T02:41:05;62.20;;;27.60;;
4921;SDS011;16625;53.624;10.106;2022-12-17T02:43:54;60.93;;;26.57;;
4921;SDS011;16625;53.624;10.106;2022-12-17T02:46:39;52.03;;;24.10;;
4921;SDS011;16625;53.624;10.106;2022-12-17T02:49:25;59.03;;;30.40;;
4921;SDS011;16625;53.624;10.106;2022-12-17T02:52:09;49.80;;;24.57;;
4921;SDS011;16625;53.624;10.106;2022-12-17T02:54:55;49.00;;;27.30;;
4921;SDS011;16625;53.624;10.106;2022-12-17T02:57:39;48.33;;;25.30;;
4921;SDS011;16625;53.624;10.106;2022-12-17T03:00:24;52.20;;;24.97;;
4921;SDS011;16625;53.624;10.106;2022-12-17T03:03:09;44.90;;;23.40;;
4921;SDS011;16625;53.624;10.106;2022-12-17T03:05:53;68.87;;;27.37;;
4921;SDS011;16625;53.624;10.106;2022-12-17T03:08:37;55.77;;;26.23;;
4921;SDS011;16625;53.624;10.106;2022-12-17T03:11:21;49.83;;;26.50;;
4921;SDS011;16625;53.624;10.106;2022-12-17T03:14:10;47.10;;;25.60;;
4921;SDS011;16625;53.624;10.106;2022-12-17T03:16:55;56.10;;;28.43;;
4921;SDS011;16625;53.624;10.106;2022-12-17T03:19:39;52.00;;;24.77;;
4921;SDS011;16625;53.624;10.106;2022-12-17T03:22:23;56.43;;;26.60;;
4921;SDS011;16625;53.624;10.106;2022-12-17T03:25:07;49.63;;;22.77;;
4921;SDS011;16625;53.624;10.106;2022-12-17T03:27:51;44.63;;;25.17;;
4921;SDS011;16625;53.624;10.106;2022-12-17T03:30:35;48.37;;;22.90;;
4921;SDS011;16625;53.624;10.106;2022-12-17T03:33:21;47.37;;;26.50;;
4921;SDS011;16625;53.624;10.106;2022-12-17T03:36:06;54.67;;;25.20;;
4921;SDS011;16625;53.624;10.106;2022-12-17T03:38:50;52.63;;;27.77;;
4921;SDS011;16625;53.624;10.106;2022-12-17T03:41:34;44.40;;;21.90;;
4921;SDS011;16625;53.624;10.106;2022-12-17T03:44:18;52.37;;;24.03;;
4921;SDS011;16625;53.624;10.106;2022-12-17T03:47:02;54.60;;;22.93;;
4921;SDS011;16625;53.624;10.106;2022-12-17T03:49:48;46.00;;;22.93;;
4921;SDS011;16625;53.624;10.106;2022-12-17T03:52:32;51.00;;;23.53;;
4921;SDS011;16625;53.624;10.106;2022-12-17T03:55:17;41.13;;;23.50;;
4921;SDS011;16625;53.624;10.106;2022-12-17T03:58:02;39.80;;;21.00;;
4921;SDS011;16625;53.624;10.106;2022-12-17T04:00:46;47.00;;;22.93;;
4921;SDS011;16625;53.624;10.106;2022-12-17T04:03:44;49.80;;;23.73;;
4921;SDS011;16625;53.624;10.106;2022-12-17T04:06:30;57.33;;;25.40;;
4921;SDS011;16625;53.624;10.106;2022-12-17T04:09:14;41.03;;;23.50;;
4921;SDS011;16625;53.624;10.106;2022-12-17T04:11:59;41.93;;;22.97;;
4921;SDS011;16625;53.624;10.106;2022-12-17T04:14:43;50.47;;;20.87;;
4921;SDS011;16625;53.624;10.106;2022-12-17T04:17:27;49.80;;;24.60;;
4921;SDS011;16625;53.624;10.106;2022-12-17T04:20:23;48.83;;;23.17;;
4921;SDS011;16625;53.624;10.106;2022-12-17T04:23:08;45.63;;;22.90;;
4921;SDS011;16625;53.624;10.106;2022-12-17T04:25:53;42.40;;;21.80;;
4921;SDS011;16625;53.624;10.106;2022-12-17T04:28:37;33.43;;;20.50;;
4921;SDS011;16625;53.624;10.106;2022-12-17T04:31:22;44.83;;;23.43;;
4921;SDS011;16625;53.624;10.106;2022-12-17T04:34:06;45.17;;;22.87;;
4921;SDS011;16625;53.624;10.106;2022-12-17T04:36:50;50.60;;;23.07;;
4921;SDS011;16625;53.624;10.106;2022-12-17T04:39:35;41.93;;;20.27;;
4921;SDS011;16625;53.624;10.106;2022-12-17T04:42:19;40.40;;;20.40;;
4921;SDS011;16625;53.624;10.106;2022-12-17T04:45:03;35.87;;;20.37;;
4921;SDS011;16625;53.624;10.106;2022-12-17T04:47:48;56.23;;;21.30;;
4921;SDS011;16625;53.624;10.106;2022-12-17T04:50:32;44.17;;;21.57;;
4921;SDS011;16625;53.624;10.106;2022-12-17T04:53:16;38.20;;;20.43;;
4921;SDS011;16625;53.624;10.106;2022-12-17T04:56:02;64.13;;;24.87;;
4921;SDS011;16625;53.624;10.106;2022-12-17T04:58:46;48.83;;;24.30;;
4921;SDS011;16625;53.624;10.106;2022-12-17T05:01:30;42.73;;;21.57;;
4921;SDS011;16625;53.624;10.106;2022-12-17T05:04:14;37.20;;;18.10;;
4921;SDS011;16625;53.624;10.106;2022-12-17T05:06:58;44.80;;;20.83;;
4921;SDS011;16625;53.624;10.106;2022-12-17T05:09:42;38.20;;;20.63;;
4921;SDS011;16625;53.624;10.106;2022-12-17T05:12:28;35.23;;;20.40;;
4921;SDS011;16625;53.624;10.106;2022-12-17T05:15:12;48.53;;;22.97;;
4921;SDS011;16625;53.624;10.106;2022-12-17T05:18:02;43.13;;;21.47;;
4921;SDS011;16625;53.624;10.106;2022-12-17T05:20:47;35.27;;;19.47;;
4921;SDS011;16625;53.624;10.106;2022-12-17T05:23:31;43.60;;;21.00;;
4921;SDS011;16625;53.624;10.106;2022-12-17T05:26:17;40.30;;;20.03;;
4921;SDS011;16625;53.624;10.106;2022-12-17T05:29:04;41.43;;;20.27;;
4921;SDS011;16625;53.624;10.106;2022-12-17T05:31:48;39.90;;;22.53;;
4921;SDS011;16625;53.624;10.106;2022-12-17T05:34:33;35.30;;;19.60;;
4921;SDS011;16625;53.624;10.106;2022-12-17T05:37:25;42.23;;;18.83;;
4921;SDS011;16625;53.624;10.106;2022-12-17T05:40:10;42.23;;;20.27;;
4921;SDS011;16625;53.624;10.106;2022-12-17T05:42:55;46.83;;;19.50;;
4921;SDS011;16625;53.624;10.106;2022-12-17T05:45:41;45.83;;;22.70;;
4921;SDS011;16625;53.624;10.106;2022-12-17T05:48:22;40.97;;;20.40;;
4921;SDS011;16625;53.624;10.106;2022-12-17T05:51:06;34.43;;;20.80;;
4921;SDS011;16625;53.624;10.106;2022-12-17T05:53:50;31.57;;;17.77;;
4921;SDS011;16625;53.624;10.106;2022-12-17T05:56:35;41.07;;;19.03;;
4921;SDS011;16625;53.624;10.106;2022-12-17T05:59:19;43.43;;;19.53;;
4921;SDS011;16625;53.624;10.106;2022-12-17T06:02:05;39.10;;;20.50;;
4921;SDS011;16625;53.624;10.106;2022-12-17T06:04:49;41.87;;;20.90;;
4921;SDS011;16625;53.624;10.106;2022-12-17T06:07:33;38.30;;;20.53;;
4921;SDS011;16625;53.624;10.106;2022-12-17T06:10:17;35.30;;;20.20;;
4921;SDS011;16625;53.624;10.106;2022-12-17T06:13:02;43.67;;;19.60;;
4921;SDS011;16625;53.624;10.106;2022-12-17T06:15:47;43.77;;;20.77;;
4921;SDS011;16625;53.624;10.106;2022-12-17T06:18:32;42.50;;;21.53;;
4921;SDS011;16625;53.624;10.106;2022-12-17T06:21:17;38.40;;;19.50;;
4921;SDS011;16625;53.624;10.106;2022-12-17T06:24:02;38.07;;;21.00;;
4921;SDS011;16625;53.624;10.106;2022-12-17T06:26:47;31.10;;;17.83;;
4921;SDS011;16625;53.624;10.106;2022-12-17T06:29:31;28.70;;;16.67;;
4921;SDS011;16625;53.624;10.106;2022-12-17T06:32:15;42.27;;;20.17;;
4921;SDS011;16625;53.624;10.106;2022-12-17T06:35:00;30.23;;;18.80;;
4921;SDS011;16625;53.624;10.106;2022-12-17T06:37:44;43.70;;;19.60;;
4921;SDS011;16625;53.624;10.106;2022-12-17T06:40:28;34.63;;;21.23;;
4921;SDS011;16625;53.624;10.106;2022-12-17T06:43:13;31.57;;;20.20;;
4921;SDS011;16625;53.624;10.106;2022-12-17T06:45:57;34.77;;;18.93;;
4921;SDS011;16625;53.624;10.106;2022-12-17T06:48:41;35.37;;;18.07;;
4921;SDS011;16625;53.624;10.106;2022-12-17T06:51:27;29.40;;;19.50;;
4921;SDS011;16625;53.624;10.106;2022-12-17T06:54:16;25.83;;;16.07;;
4921;SDS011;16625;53.624;10.106;2022-12-17T06:57:00;39.23;;;17.67;;
4921;SDS011;16625;53.624;10.106;2022-12-17T06:59:45;42.37;;;19.47;;
4921;SDS011;16625;53.624;10.106;2022-12-17T07:02:29;37.27;;;18.57;;
4921;SDS011;16625;53.624;10.106;2022-12-17T07:05:13;29.30;;;18.70;;
4921;SDS011;16625;53.624;10.106;2022-12-17T07:07:59;36.17;;;16.90;;
4921;SDS011;16625;53.624;10.106;2022-12-17T07:10:44;33.80;;;18.70;;
4921;SDS011;16625;53.624;10.106;2022-12-17T07:13:28;44.33;;;19.10;;
4921;SDS011;16625;53.624;10.106;2022-12-17T07:16:12;37.67;;;19.07;;
4921;SDS011;16625;53.624;10.106;2022-12-17T07:18:57;46.67;;;19.57;;
4921;SDS011;16625;53.624;10.106;2022-12-17T07:21:41;31.40;;;17.53;;
4921;SDS011;16625;53.624;10.106;2022-12-17T07:24:27;42.10;;;18.80;;
4921;SDS011;16625;53.624;10.106;2022-12-17T07:27:22;48.47;;;23.33;;
4921;SDS011;16625;53.624;10.106;2022-12-17T07:30:07;31.67;;;19.50;;
4921;SDS011;16625;53.624;10.106;2022-12-17T07:32:58;38.33;;;19.77;;
4921;SDS011;16625;53.624;10.106;2022-12-17T07:35:42;46.00;;;21.80;;
4921;SDS011;16625;53.624;10.106;2022-12-17T07:38:27;39.43;;;18.70;;
4921;SDS011;16625;53.624;10.106;2022-12-17T07:41:12;31.10;;;16.40;;
4921;SDS011;16625;53.624;10.106;2022-12-17T07:43:57;35.73;;;18.70;;
4921;SDS011;16625;53.624;10.106;2022-12-17T07:46:41;28.07;;;16.20;;
4921;SDS011;16625;53.624;10.106;2022-12-17T07:49:25;34.63;;;18.70;;
4921;SDS011;16625;53.624;10.106;2022-12-17T07:52:09;35.17;;;17.03;;
4921;SDS011;16625;53.624;10.106;2022-12-17T07:54:53;30.40;;;18.27;;
4921;SDS011;16625;53.624;10.106;2022-12-17T07:57:38;40.17;;;18.67;;
4921;SDS011;16625;53.624;10.106;2022-12-17T08:00:22;31.43;;;16.33;;
4921;SDS011;16625;53.624;10.106;2022-12-17T08:03:07;40.83;;;17.60;;
4921;SDS011;16625;53.624;10.106;2022-12-17T08:05:51;31.13;;;17.13;;
4921;SDS011;16625;53.624;10.106;2022-12-17T08:08:35;39.93;;;18.50;;
4921;SDS011;16625;53.624;10.106;2022-12-17T08:11:19;36.73;;;18.40;;
4921;SDS011;16625;53.624;10.106;2022-12-17T08:14:05;37.43;;;18.50;;
4921;SDS011;16625;53.624;10.106;2022-12-17T08:16:49;40.80;;;18.50;;
4921;SDS011;16625;53.624;10.106;2022-12-17T08:19:33;30.23;;;16.20;;
4921;SDS011;16625;53.624;10.106;2022-12-17T08:22:17;37.10;;;18.70;;
4921;SDS011;16625;53.624;10.106;2022-12-17T08:25:02;32.93;;;17.60;;
4921;SDS011;16625;53.624;10.106;2022-12-17T08:27:47;28.67;;;17.83;;
4921;SDS011;16625;53.624;10.106;2022-12-17T08:30:32;34.93;;;19.00;;
4921;SDS011;16625;53.624;10.106;2022-12-17T08:33:16;42.90;;;21.83;;
4921;SDS011;16625;53.624;10.106;2022-12-17T08:36:01;36.90;;;21.00;;
4921;SDS011;16625;53.624;10.106;2022-12-17T08:38:45;35.70;;;18.60;;
4921;SDS011;16625;53.624;10.106;2022-12-17T08:41:29;40.93;;;20.27;;
4921;SDS011;16625;53.624;10.106;2022-12-17T08:44:15;37.87;;;18.00;;
4921;SDS011;16625;53.624;10.106;2022-12-17T08:47:01;31.53;;;20.07;;
4921;SDS011;16625;53.624;10.106;2022-12-17T08:49:45;34.33;;;19.93;;
4921;SDS011;16625;53.624;10.106;2022-12-17T08:52:29;33.07;;;17.63;;
4921;SDS011;16625;53.624;10.106;2022-12-17T08:55:13;59.43;;;19.97;;
4921;SDS011;16625;53.624;10.106;2022-12-17T08:57:58;40.50;;;20.07;;
4921;SDS011;16625;53.624;10.106;2022-12-17T09:00:42;40.17;;;17.63;;
4921;SDS011;16625;53.624;10.106;2022-12-17T09:03:29;37.23;;;19.67;;
4921;SDS011;16625;53.624;10.106;2022-12-17T09:06:13;39.00;;;21.30;;
4921;SDS011;16625;53.624;10.106;2022-12-17T09:08:58;46.33;;;23.73;;
4921;SDS011;16625;53.624;10.106;2022-12-17T09:11:42;43.63;;;18.63;;
4921;SDS011;16625;53.624;10.106;2022-12-17T09:14:26;33.47;;;20.57;;
4921;SDS011;16625;53.624;10.106;2022-12-17T09:17:10;45.33;;;21.70;;
4921;SDS011;16625;53.624;10.106;2022-12-17T09:19:56;44.50;;;20.80;;
4921;SDS011;16625;53.624;10.106;2022-12-17T09:22:40;43.00;;;20.47;;
4921;SDS011;16625;53.624;10.106;2022-12-17T09:25:24;43.77;;;21.90;;
4921;SDS011;16625;53.624;10.106;2022-12-17T09:28:09;39.10;;;20.80;;
4921;SDS011;16625;53.624;10.106;2022-12-17T09:30:56;49.23;;;23.17;;
4921;SDS011;16625;53.624;10.106;2022-12-17T09:33:41;44.17;;;22.10;;
4921;SDS011;16625;53.624;10.106;2022-12-17T09:36:39;52.20;;;24.80;;
4921;SDS011;16625;53.624;10.106;2022-12-17T09:39:22;52.53;;;24.93;;
4921;SDS011;16625;53.624;10.106;2022-12-17T09:42:08;48.10;;;24.33;;
4921;SDS011;16625;53.624;10.106;2022-12-17T09:45:00;59.53;;;27.00;;
4921;SDS011;16625;53.624;10.106;2022-12-17T09:47:50;39.67;;;24.33;;
4921;SDS011;16625;53.624;10.106;2022-12-17T09:50:42;47.37;;;23.57;;
4921;SDS011;16625;53.624;10.106;2022-12-17T09:53:27;50.50;;;25.50;;
4921;SDS011;16625;53.624;10.106;2022-12-17T09:56:18;44.60;;;24.20;;
4921;SDS011;16625;53.624;10.106;2022-12-17T09:59:05;48.40;;;24.73;;
4921;SDS011;16625;53.624;10.106;2022-12-17T10:01:49;46.90;;;25.07;;
4921;SDS011;16625;53.624;10.106;2022-12-17T10:04:34;42.43;;;24.97;;
4921;SDS011;16625;53.624;10.106;2022-12-17T10:07:24;52.17;;;25.37;;
4921;SDS011;16625;53.624;10.106;2022-12-17T10:10:15;38.27;;;18.60;;
4921;SDS011;16625;53.624;10.106;2022-12-17T10:13:06;48.30;;;29.80;;
4921;SDS011;16625;53.624;10.106;2022-12-17T10:15:53;45.90;;;25.37;;
4921;SDS011;16625;53.624;10.106;2022-12-17T10:18:37;47.43;;;25.63;;
4921;SDS011;16625;53.624;10.106;2022-12-17T10:21:21;40.87;;;23.07;;
4921;SDS011;16625;53.624;10.106;2022-12-17T10:24:06;43.63;;;22.33;;
4921;SDS011;16625;53.624;10.106;2022-12-17T10:26:52;47.87;;;25.00;;
4921;SDS011;16625;53.624;10.106;2022-12-17T10:29:38;51.00;;;25.20;;
4921;SDS011;16625;53.624;10.106;2022-12-17T10:32:25;53.83;;;27.43;;
4921;SDS011;16625;53.624;10.106;2022-12-17T10:35:12;59.80;;;27.93;;
4921;SDS011;16625;53.624;10.106;2022-12-17T10:38:08;52.50;;;27.47;;
4921;SDS011;16625;53.624;10.106;2022-12-17T10:40:54;45.07;;;23.87;;
4921;SDS011;16625;53.624;10.106;2022-12-17T10:43:40;43.23;;;24.30;;
4921;SDS011;16625;53.624;10.106;2022-12-17T10:46:25;48.10;;;26.40;;
4921;SDS011;16625;53.624;10.106;2022-12-17T10:49:11;55.77;;;27.93;;
4921;SDS011;16625;53.624;10.106;2022-12-17T10:51:58;52.40;;;25.50;;
4921;SDS011;16625;53.624;10.106;2022-12-17T10:54:53;45.63;;;23.77;;
4921;SDS011;16625;53.624;10.106;2022-12-17T10:57:39;46.37;;;26.70;;
4921;SDS011;16625;53.624;10.106;2022-12-17T11:00:26;45.40;;;27.13;;
4921;SDS011;16625;53.624;10.106;2022-12-17T11:03:29;45.87;;;25.83;;
4921;SDS011;16625;53.624;10.106;2022-12-17T11:06:17;48.80;;;25.03;;
4921;SDS011;16625;53.624;10.106;2022-12-17T11:09:07;55.77;;;26.93;;
4921;SDS011;16625;53.624;10.106;2022-12-17T11:11:58;47.07;;;26.90;;
4921;SDS011;16625;53.624;10.106;2022-12-17T11:14:47;43.37;;;25.40;;
4921;SDS011;16625;53.624;10.106;2022-12-17T11:17:36;50.47;;;26.10;;
4921;SDS011;16625;53.624;10.106;2022-12-17T11:20:23;49.03;;;24.20;;
4921;SDS011;16625;53.624;10.106;2022-12-17T11:23:15;41.13;;;23.53;;
4921;SDS011;16625;53.624;10.106;2022-12-17T11:26:11;61.97;;;25.17;;
4921;SDS011;16625;53.624;10.106;2022-12-17T11:28:58;46.77;;;26.87;;
4921;SDS011;16625;53.624;10.106;2022-12-17T11:31:50;50.50;;;25.43;;
4921;SDS011;16625;53.624;10.106;2022-12-17T11:35:06;51.00;;;25.30;;
4921;SDS011;16625;53.624;10.106;2022-12-17T11:38:01;37.77;;;23.40;;
4921;SDS011;16625;53.624;10.106;2022-12-17T11:40:53;43.43;;;22.00;;
4921;SDS011;16625;53.624;10.106;2022-12-17T11:43:42;55.13;;;24.80;;
4921;SDS011;16625;53.624;10.106;2022-12-17T11:46:38;47.20;;;25.20;;
4921;SDS011;16625;53.624;10.106;2022-12-17T11:49:29;36.23;;;18.43;;
4921;SDS011;16625;53.624;10.106;2022-12-17T11:52:22;45.50;;;23.47;;
4921;SDS011;16625;53.624;10.106;2022-12-17T11:55:15;47.30;;;26.30;;
4921;SDS011;16625;53.624;10.106;2022-12-17T11:58:04;51.27;;;25.70;;
4921;SDS011;16625;53.624;10.106;2022-12-17T12:00:54;48.23;;;24.57;;
4921;SDS011;16625;53.624;10.106;2022-12-17T12:03:48;42.17;;;23.87;;
4921;SDS011;16625;53.624;10.106;2022-12-17T12:06:38;45.00;;;24.67;;
4921;SDS011;16625;53.624;10.106;2022-12-17T12:09:34;40.13;;;23.00;;
4921;SDS011;16625;53.624;10.106;2022-12-17T12:12:36;55.57;;;26.23;;
4921;SDS011;16625;53.624;10.106;2022-12-17T12:18:09;48.07;;;26.90;;
4921;SDS011;16625;53.624;10.106;2022-12-17T12:32:01;43.77;;;23.43;;
4921;SDS011;16625;53.624;10.106;2022-12-17T12:38:12;38.97;;;25.77;;
4921;SDS011;16625;53.624;10.106;2022-12-17T12:41:06;43.33;;;23.60;;
4921;SDS011;16625;53.624;10.106;2022-12-17T12:44:00;45.37;;;24.73;;
4921;SDS011;16625;53.624;10.106;2022-12-17T12:50:11;43.07;;;20.20;;
4921;SDS011;16625;53.624;10.106;2022-12-17T12:53:02;48.57;;;24.90;;
4921;SDS011;16625;53.624;10.106;2022-12-17T12:56:01;42.90;;;21.47;;
4921;SDS011;16625;53.624;10.106;2022-12-17T12:58:45;36.43;;;19.30;;
4921;SDS011;16625;53.624;10.106;2022-12-17T13:01:31;43.77;;;22.73;;
4921;SDS011;16625;53.624;10.106;2022-12-17T13:04:26;40.47;;;21.07;;
4921;SDS011;16625;53.624;10.106;2022-12-17T13:07:22;36.40;;;21.10;;
4921;SDS011;16625;53.624;10.106;2022-12-17T13:09:51;33.17;;;19.63;;
4921;SDS011;16625;53.624;10.106;2022-12-17T13:12:23;32.57;;;17.00;;
4921;SDS011;16625;53.624;10.106;2022-12-17T13:14:55;29.07;;;18.47;;
4921;SDS011;16625;53.624;10.106;2022-12-17T13:17:36;37.37;;;17.90;;
4921;SDS011;16625;53.624;10.106;2022-12-17T13:20:24;38.47;;;19.20;;
4921;SDS011;16625;53.624;10.106;2022-12-17T13:25:50;27.20;;;15.67;;
4921;SDS011;16625;53.624;10.106;2022-12-17T13:28:46;30.30;;;15.50;;
4921;SDS011;16625;53.624;10.106;2022-12-17T13:31:24;34.10;;;18.30;;
4921;SDS011;16625;53.624;10.106;2022-12-17T13:33:53;32.90;;;18.03;;
4921;SDS011;16625;53.624;10.106;2022-12-17T13:36:31;26.03;;;15.70;;
4921;SDS011;16625;53.624;10.106;2022-12-17T13:39:07;25.60;;;13.97;;
4921;SDS011;16625;53.624;10.106;2022-12-17T13:41:45;27.53;;;16.40;;
4921;SDS011;16625;53.624;10.106;2022-12-17T13:44:19;31.30;;;14.27;;
4921;SDS011;16625;53.624;10.106;2022-12-17T13:46:48;30.57;;;16.23;;
4921;SDS011;16625;53.624;10.106;2022-12-17T13:49:16;33.40;;;17.20;;
4921;SDS011;16625;53.624;10.106;2022-12-17T13:51:46;23.73;;;15.50;;
4921;SDS011;16625;53.624;10.106;2022-12-17T13:54:14;31.93;;;16.87;;
4921;SDS011;16625;53.624;10.106;2022-12-17T13:56:42;24.97;;;15.50;;
4921;SDS011;16625;53.624;10.106;2022-12-17T13:59:14;25.43;;;14.37;;
4921;SDS011;16625;53.624;10.106;2022-12-17T14:01:44;29.23;;;16.80;;
4921;SDS011;16625;53.624;10.106;2022-12-17T14:04:19;26.00;;;14.73;;
4921;SDS011;16625;53.624;10.106;2022-12-17T14:06:49;34.60;;;16.17;;
4921;SDS011;16625;53.624;10.106;2022-12-17T14:09:19;27.00;;;16.00;;
4921;SDS011;16625;53.624;10.106;2022-12-17T14:11:48;29.30;;;16.33;;
4921;SDS011;16625;53.624;10.106;2022-12-17T14:14:33;29.50;;;16.20;;
4921;SDS011;16625;53.624;10.106;2022-12-17T14:17:02;28.33;;;17.00;;
4921;SDS011;16625;53.624;10.106;2022-12-17T14:19:29;26.13;;;16.20;;
4921;SDS011;16625;53.624;10.106;2022-12-17T14:21:59;27.67;;;16.60;;
4921;SDS011;16625;53.624;10.106;2022-12-17T14:24:26;35.37;;;16.07;;
4921;SDS011;16625;53.624;10.106;2022-12-17T14:26:55;25.17;;;15.40;;
4921;SDS011;16625;53.624;10.106;2022-12-17T14:29:24;24.50;;;14.37;;
4921;SDS011;16625;53.624;10.106;2022-12-17T14:31:53;26.43;;;15.10;;
4921;SDS011;16625;53.624;10.106;2022-12-17T14:34:22;24.67;;;15.87;;
4921;SDS011;16625;53.624;10.106;2022-12-17T14:36:53;35.37;;;16.80;;
4921;SDS011;16625;53.624;10.106;2022-12-17T14:39:25;25.70;;;14.40;;
4921;SDS011;16625;53.624;10.106;2022-12-17T14:41:54;28.57;;;14.37;;
4921;SDS011;16625;53.624;10.106;2022-12-17T14:44:46;25.10;;;15.23;;
4921;SDS011;16625;53.624;10.106;2022-12-17T14:47:17;49.97;;;15.17;;
4921;SDS011;16625;53.624;10.106;2022-12-17T14:49:49;24.40;;;15.10;;
4921;SDS011;16625;53.624;10.106;2022-12-17T14:52:29;24.67;;;13.80;;
4921;SDS011;16625;53.624;10.106;2022-12-17T14:55:27;25.80;;;13.50;;
4921;SDS011;16625;53.624;10.106;2022-12-17T15:00:50;31.90;;;16.17;;
4921;SDS011;16625;53.624;10.106;2022-12-17T15:03:21;23.20;;;15.10;;
4921;SDS011;16625;53.624;10.106;2022-12-17T15:05:51;24.03;;;14.70;;
4921;SDS011;16625;53.624;10.106;2022-12-17T15:08:20;25.63;;;12.73;;
4921;SDS011;16625;53.624;10.106;2022-12-17T15:10:50;26.43;;;16.10;;
4921;SDS011;16625;53.624;10.106;2022-12-17T15:13:17;40.87;;;18.40;;
4921;SDS011;16625;53.624;10.106;2022-12-17T15:15:52;37.47;;;17.10;;
4921;SDS011;16625;53.624;10.106;2022-12-17T15:18:19;31.77;;;15.80;;
4921;SDS011;16625;53.624;10.106;2022-12-17T15:20:46;34.90;;;17.40;;
4921;SDS011;16625;53.624;10.106;2022-12-17T15:23:14;26.03;;;14.70;;
4921;SDS011;16625;53.624;10.106;2022-12-17T15:25:42;37.70;;;17.33;;
4921;SDS011;16625;53.624;10.106;2022-12-17T15:28:10;28.73;;;15.37;;
4921;SDS011;16625;53.624;10.106;2022-12-17T15:30:37;47.90;;;22.17;;
4921;SDS011;16625;53.624;10.106;2022-12-17T15:33:04;29.43;;;15.20;;
4921;SDS011;16625;53.624;10.106;2022-12-17T15:35:33;27.80;;;13.27;;
4921;SDS011;16625;53.624;10.106;2022-12-17T15:38:00;28.43;;;15.13;;
4921;SDS011;16625;53.624;10.106;2022-12-17T15:40:27;23.00;;;15.20;;
4921;SDS011;16625;53.624;10.106;2022-12-17T15:42:54;28.57;;;15.20;;
4921;SDS011;16625;53.624;10.106;2022-12-17T15:45:40;25.00;;;14.00;;
4921;SDS011;16625;53.624;10.106;2022-12-17T15:48:08;23.53;;;13.30;;
4921;SDS011;16625;53.624;10.106;2022-12-17T15:50:35;26.50;;;13.87;;
4921;SDS011;16625;53.624;10.106;2022-12-17T15:53:02;27.10;;;12.93;;
4921;SDS011;16625;53.624;10.106;2022-12-17T15:55:29;18.50;;;12.87;;
4921;SDS011;16625;53.624;10.106;2022-12-17T15:58:01;25.47;;;14.50;;
4921;SDS011;16625;53.624;10.106;2022-12-17T16:00:29;30.87;;;14.30;;
4921;SDS011;16625;53.624;10.106;2022-12-17T16:02:58;18.27;;;12.23;;
4921;SDS011;16625;53.624;10.106;2022-12-17T16:05:25;34.73;;;15.60;;
4921;SDS011;16625;53.624;10.106;2022-12-17T16:07:52;19.70;;;12.80;;
4921;SDS011;16625;53.624;10.106;2022-12-17T16:10:22;23.73;;;14.30;;
4921;SDS011;16625;53.624;10.106;2022-12-17T16:12:49;23.83;;;14.57;;
4921;SDS011;16625;53.624;10.106;2022-12-17T16:15:16;28.27;;;14.63;;
4921;SDS011;16625;53.624;10.106;2022-12-17T16:17:43;25.13;;;13.83;;
4921;SDS011;16625;53.624;10.106;2022-12-17T16:20:14;37.73;;;14.27;;